Charbonneau, Oregon
Current Conditions -  °F | °C
As of 7:53 PM on Friday 28 Nov 2014 (Local Time) from KUAO Reporting Station
Overcast Overcast  
Wind Chill: 44°   Ceiling: 1700
Heat Index: 46°   Visibility: 10mi
Dew Point: 42°   Wind: 5mph
Humidity: 86%   Direction: 340°NNW
Pressure: 29.58"   Gusts: NA
Location:  45.309°N, 122.769°W
Report Text: KUAO 290353Z AUTO 34004KT 10SM OVC017 08/06 A2958 RMK AO2 SLP017 T00780056
Loading
Personal Weather Stations






























Interactive Weather Map New forecast layout! Learn more

10-Day Weather Forecast

Advertisements
Track Severe Weather on mobile